createdAt,value
2022-09-15T00:00:00.789Z,96520.28
2022-09-15T00:02:27.410Z,96514.63
2022-09-15T00:04:54.047Z,96519.50
2022-09-15T00:07:20.864Z,96517.59
2022-09-15T00:09:47.390Z,96520.63
2022-09-15T00:12:13.951Z,96520.97
2022-09-15T00:14:40.532Z,96525.44
2022-09-15T00:17:07.124Z,96516.41
2022-09-15T00:19:33.689Z,96523.09
2022-09-15T00:22:00.193Z,96525.34
2022-09-15T00:24:26.917Z,96528.38
2022-09-15T00:26:53.433Z,96520.84
2022-09-15T00:29:20.250Z,96520.09
2022-09-15T00:31:46.783Z,96519.34
2022-09-15T00:34:14.087Z,96529.84
2022-09-15T00:36:40.931Z,96528.25
2022-09-15T00:39:07.850Z,96530.88
2022-09-15T00:41:34.834Z,96528.63
2022-09-15T00:44:16.398Z,96536.84
2022-09-15T00:46:58.676Z,96532.69
2022-09-15T00:49:36.508Z,96530.78
2022-09-15T00:52:17.185Z,96536.44
2022-09-15T00:55:08.435Z,96533.00
2022-09-15T00:57:51.046Z,96540.03
2022-09-15T01:00:20.514Z,96537.00
2022-09-15T01:02:48.455Z,96543.34
2022-09-15T01:05:19.078Z,96539.19
2022-09-15T01:08:03.092Z,96543.69
2022-09-15T01:10:34.128Z,96544.03
2022-09-15T01:13:04.371Z,96545.47
2022-09-15T01:15:52.912Z,96545.81
2022-09-15T01:18:43.074Z,96548.09
2022-09-15T01:21:18.096Z,96546.16
2022-09-15T01:24:23.916Z,96545.38
2022-09-15T01:26:59.060Z,96545.78
2022-09-15T01:29:45.650Z,96550.97
2022-09-15T01:32:52.427Z,96542.00
2022-09-15T01:35:37.006Z,96536.72
2022-09-15T01:38:22.897Z,96542.31
2022-09-15T01:41:25.464Z,96542.22
2022-09-15T01:43:59.716Z,96545.16
2022-09-15T01:46:30.461Z,96539.09
2022-09-15T01:49:00.790Z,96539.91
2022-09-15T01:51:28.531Z,96533.06
2022-09-15T01:53:56.451Z,96531.94
2022-09-15T01:56:23.038Z,96533.53
2022-09-15T01:58:50.963Z,96536.44
2022-09-15T02:01:28.148Z,96530.81
2022-09-15T02:04:02.123Z,96534.06
2022-09-15T02:06:37.378Z,96534.44
2022-09-15T02:09:18.059Z,96545.22
2022-09-15T02:12:02.687Z,96542.25
2022-09-15T02:14:35.334Z,96545.94
2022-09-15T02:17:03.003Z,96540.25
2022-09-15T02:19:34.301Z,96539.94
2022-09-15T02:22:10.736Z,96542.50
2022-09-15T02:24:44.424Z,96542.84
2022-09-15T02:27:17.840Z,96547.69
2022-09-15T02:29:47.626Z,96539.81
2022-09-15T02:32:17.612Z,96542.44
2022-09-15T02:34:47.873Z,96542.81
2022-09-15T02:37:15.140Z,96534.59
2022-09-15T02:39:48.576Z,96533.44
2022-09-15T02:42:24.608Z,96523.72
2022-09-15T02:44:51.464Z,96530.41
2022-09-15T02:47:18.285Z,96524.06
2022-09-15T02:49:44.826Z,96527.38
2022-09-15T02:52:11.613Z,96528.41
2022-09-15T02:54:38.277Z,96526.97
2022-09-15T02:57:05.150Z,96525.06
2022-09-15T02:59:51.659Z,96528.72
2022-09-15T03:02:20.623Z,96525.72
2022-09-15T03:04:48.270Z,96527.97
2022-09-15T03:07:15.184Z,96529.06
2022-09-15T03:09:42.052Z,96529.06
2022-09-15T03:12:09.141Z,96533.44
2022-09-15T03:14:35.674Z,96532.41
2022-09-15T03:17:03.262Z,96535.03
2022-09-15T03:19:31.056Z,96543.25
2022-09-15T03:21:57.732Z,96538.34
2022-09-15T03:24:24.395Z,96542.41
2022-09-15T03:26:50.929Z,96545.09
2022-09-15T03:29:17.585Z,96545.03
2022-09-15T03:31:44.192Z,96554.44
2022-09-15T03:34:10.882Z,96558.16
2022-09-15T03:36:41.268Z,96556.69
2022-09-15T03:39:07.826Z,96560.38
2022-09-15T03:41:34.373Z,96561.34
2022-09-15T03:44:01.039Z,96566.66
2022-09-15T03:46:27.978Z,96562.50
2022-09-15T03:48:54.512Z,96566.91
2022-09-15T03:51:21.918Z,96574.97
2022-09-15T03:53:48.678Z,96573.06
2022-09-15T03:56:33.009Z,96568.94
2022-09-15T03:59:02.030Z,96579.06
2022-09-15T04:01:30.325Z,96583.53
2022-09-15T04:03:57.967Z,96577.47
2022-09-15T04:06:26.613Z,96583.59
2022-09-15T04:08:53.510Z,96581.56
2022-09-15T04:11:21.969Z,96586.38
2022-09-15T04:13:48.962Z,96588.22
2022-09-15T04:16:18.476Z,96580.06
2022-09-15T04:18:45.369Z,96577.75
2022-09-15T04:21:16.462Z,96586.78
2022-09-15T04:23:44.307Z,96591.97
2022-09-15T04:26:31.274Z,96583.63
2022-09-15T04:29:03.173Z,96584.47
2022-09-15T04:31:30.860Z,96587.44
2022-09-15T04:33:57.485Z,96592.22
2022-09-15T04:36:26.081Z,96594.31
2022-09-15T04:38:53.199Z,96595.06
2022-09-15T04:41:20.926Z,96599.06
2022-09-15T04:43:47.695Z,96602.28
2022-09-15T04:46:15.193Z,96606.41
2022-09-15T04:48:42.637Z,96611.00
2022-09-15T04:51:13.037Z,96616.53
2022-09-15T04:53:40.051Z,96607.16
2022-09-15T04:56:12.436Z,96615.22
2022-09-15T04:58:40.758Z,96611.22
2022-09-15T05:01:15.893Z,96611.97
2022-09-15T05:03:43.032Z,96618.78
2022-09-15T05:06:11.788Z,96614.03
2022-09-15T05:08:38.807Z,96615.50
2022-09-15T05:11:12.669Z,96620.66
2022-09-15T05:13:39.855Z,96620.44
2022-09-15T05:16:09.064Z,96620.28
2022-09-15T05:18:35.919Z,96627.81
2022-09-15T05:21:03.760Z,96618.03
2022-09-15T05:23:31.282Z,96626.59
2022-09-15T05:25:59.204Z,96632.00
2022-09-15T05:28:26.640Z,96645.75
2022-09-15T05:30:54.304Z,96650.09
2022-09-15T05:33:23.063Z,96645.88
2022-09-15T05:35:53.363Z,96645.00
2022-09-15T05:38:20.321Z,96645.84
2022-09-15T05:40:47.241Z,96644.59
2022-09-15T05:43:14.921Z,96645.56
2022-09-15T05:45:42.790Z,96648.56
2022-09-15T05:48:10.585Z,96648.91
2022-09-15T05:50:38.731Z,96655.03
2022-09-15T05:53:07.466Z,96644.56
2022-09-15T05:55:38.150Z,96652.28
2022-09-15T05:58:04.735Z,96654.88
2022-09-15T06:00:31.315Z,96661.81
2022-09-15T06:02:57.901Z,96668.91
2022-09-15T06:05:24.573Z,96665.50
2022-09-15T06:07:55.224Z,96666.28
2022-09-15T06:10:25.201Z,96663.94
2022-09-15T06:12:55.926Z,96667.34
2022-09-15T06:15:23.290Z,96669.94
2022-09-15T06:17:50.023Z,96670.56
2022-09-15T06:20:17.082Z,96677.66
2022-09-15T06:22:43.708Z,96679.00
2022-09-15T06:25:11.798Z,96683.53
2022-09-15T06:27:38.343Z,96689.53
2022-09-15T06:30:05.501Z,96691.53
2022-09-15T06:32:32.103Z,96692.56
2022-09-15T06:34:58.788Z,96700.53
2022-09-15T06:37:25.779Z,96698.28
2022-09-15T06:39:52.385Z,96697.25
2022-09-15T06:42:18.975Z,96694.13
2022-09-15T06:44:47.896Z,96684.81
2022-09-15T06:47:15.552Z,96685.19
2022-09-15T06:49:42.390Z,96684.66
2022-09-15T06:52:08.965Z,96687.78
2022-09-15T06:54:35.658Z,96699.00
2022-09-15T06:57:02.217Z,96699.59
2022-09-15T06:59:28.932Z,96707.84
2022-09-15T07:01:56.088Z,96705.38
2022-09-15T07:04:22.707Z,96705.63
2022-09-15T07:06:50.644Z,96713.44
2022-09-15T07:09:17.388Z,96711.59
2022-09-15T07:11:44.114Z,96713.69
2022-09-15T07:14:11.421Z,96717.50
2022-09-15T07:16:38.382Z,96720.63
2022-09-15T07:19:06.013Z,96720.88
2022-09-15T07:21:34.055Z,96716.84
2022-09-15T07:24:03.843Z,96711.78
2022-09-15T07:26:33.926Z,96718.94
2022-09-15T07:29:04.465Z,96720.91
2022-09-15T07:31:33.904Z,96714.25
2022-09-15T07:34:01.216Z,96733.09
2022-09-15T07:36:28.251Z,96734.84
2022-09-15T07:38:54.865Z,96749.59
2022-09-15T07:41:27.257Z,96747.22
2022-09-15T07:43:56.039Z,96747.69
2022-09-15T07:46:24.952Z,96765.81
2022-09-15T07:48:53.317Z,96769.84
2022-09-15T07:51:20.303Z,96773.66
2022-09-15T07:53:48.394Z,96769.91
2022-09-15T07:56:18.477Z,96776.75
2022-09-15T07:58:45.961Z,96784.41
2022-09-15T08:01:14.914Z,96790.81
2022-09-15T08:03:46.762Z,96791.66
2022-09-15T08:06:14.090Z,96771.25
2022-09-15T08:08:46.792Z,96783.06
2022-09-15T08:11:19.037Z,96772.09
2022-09-15T08:13:50.500Z,96778.03
2022-09-15T08:16:23.303Z,96794.00
2022-09-15T08:18:52.507Z,96785.75
2022-09-15T08:21:20.978Z,96807.16
2022-09-15T08:23:56.425Z,96821.69
2022-09-15T08:26:24.005Z,96831.19
2022-09-15T08:28:50.581Z,96847.44
2022-09-15T08:31:17.987Z,96836.06
2022-09-15T08:33:52.025Z,96855.84
2022-09-15T08:36:19.284Z,96869.53
2022-09-15T08:38:46.844Z,96872.31
2022-09-15T08:41:22.759Z,96855.56
2022-09-15T08:44:19.614Z,96885.38
2022-09-15T08:46:56.260Z,96884.28
2022-09-15T08:49:52.075Z,96896.06
2022-09-15T08:52:38.688Z,96913.59
2022-09-15T08:55:13.740Z,96923.53
2022-09-15T08:57:40.658Z,96927.88
2022-09-15T09:00:14.502Z,96914.94
2022-09-15T09:03:05.369Z,96929.06
2022-09-15T09:05:54.214Z,96918.88
2022-09-15T09:08:51.001Z,96923.94
2022-09-15T09:11:45.670Z,96931.88
2022-09-15T09:14:32.833Z,96928.16
2022-09-15T09:17:14.744Z,96942.22
2022-09-15T09:20:02.096Z,96930.09
2022-09-15T09:22:34.572Z,96925.63
2022-09-15T09:25:11.564Z,96933.09
2022-09-15T09:27:43.432Z,96932.44
2022-09-15T09:30:22.574Z,96932.53
2022-09-15T09:32:55.202Z,96928.09
2022-09-15T09:35:43.160Z,96925.16
2022-09-15T09:38:11.377Z,96929.59
2022-09-15T09:40:41.179Z,96939.81
2022-09-15T09:43:08.506Z,96936.41
2022-09-15T09:45:35.167Z,96937.50
2022-09-15T09:48:10.099Z,96928.16
2022-09-15T09:50:45.392Z,96929.31
2022-09-15T09:53:31.177Z,96923.38
2022-09-15T09:56:27.456Z,96946.59
2022-09-15T09:58:54.644Z,96954.59
2022-09-15T10:01:25.332Z,96970.78
2022-09-15T10:04:13.388Z,96977.31
2022-09-15T10:06:41.330Z,97015.06
2022-09-15T10:09:14.109Z,97021.44
2022-09-15T10:11:49.841Z,96981.53
2022-09-15T10:14:20.283Z,97022.22
2022-09-15T10:17:11.856Z,97029.97
2022-09-15T10:19:49.617Z,97007.72
2022-09-15T10:22:25.109Z,97001.06
2022-09-15T10:24:52.033Z,96978.13
2022-09-15T10:27:37.078Z,97012.75
2022-09-15T10:30:12.938Z,97061.25
2022-09-15T10:32:40.295Z,97069.22
2022-09-15T10:35:21.129Z,97053.03
2022-09-15T10:38:12.015Z,97098.66
2022-09-15T10:40:43.902Z,97119.00
2022-09-15T10:43:22.331Z,97112.16
2022-09-15T10:45:55.838Z,97094.22
2022-09-15T10:48:46.387Z,97084.34
2022-09-15T10:51:37.838Z,97078.66
2022-09-15T10:54:31.742Z,97042.06
2022-09-15T10:57:24.272Z,97030.75
2022-09-15T11:00:07.009Z,97035.97
2022-09-15T11:02:48.468Z,97052.78
2022-09-15T11:05:43.259Z,97060.38
2022-09-15T11:08:15.891Z,97067.97
2022-09-15T11:10:50.510Z,97084.88
2022-09-15T11:13:27.305Z,97070.59
2022-09-15T11:16:12.923Z,97090.38
2022-09-15T11:19:01.282Z,97114.03
2022-09-15T11:21:36.698Z,97094.06
2022-09-15T11:24:40.580Z,97090.91
2022-09-15T11:27:19.888Z,97087.84
2022-09-15T11:30:00.115Z,97031.47
2022-09-15T11:32:32.534Z,97064.72
2022-09-15T11:35:29.874Z,97092.50
2022-09-15T11:38:01.409Z,97058.69
2022-09-15T11:40:36.086Z,97051.94
2022-09-15T11:43:18.487Z,97105.66
2022-09-15T11:45:49.778Z,97097.53
2022-09-15T11:48:22.783Z,97066.59
2022-09-15T11:50:53.568Z,97119.78
2022-09-15T11:53:26.040Z,97123.25
2022-09-15T11:55:58.526Z,97152.91
2022-09-15T11:58:50.322Z,97096.81
2022-09-15T12:01:22.548Z,97177.50
2022-09-15T12:03:56.208Z,97172.59
2022-09-15T12:06:32.163Z,97186.09
2022-09-15T12:09:04.710Z,97233.81
2022-09-15T12:11:35.433Z,97224.38
2022-09-15T12:14:05.805Z,97207.53
2022-09-15T12:16:33.934Z,97192.50
2022-09-15T12:19:19.061Z,97227.16
2022-09-15T12:22:01.702Z,97228.28
2022-09-15T12:24:35.485Z,97239.50
2022-09-15T12:27:02.484Z,97249.31
2022-09-15T12:29:41.214Z,97168.69
2022-09-15T12:32:28.779Z,97204.59
2022-09-15T12:34:57.057Z,97211.41
2022-09-15T12:37:25.606Z,97206.84
2022-09-15T12:39:53.204Z,97185.66
2022-09-15T12:42:21.849Z,97174.75
2022-09-15T12:44:53.293Z,97188.78
2022-09-15T12:47:19.797Z,97195.16
2022-09-15T12:49:49.412Z,97198.94
2022-09-15T12:52:17.351Z,97217.03
2022-09-15T12:54:50.831Z,97228.28
2022-09-15T12:57:31.403Z,97209.41
2022-09-15T13:00:20.046Z,97234.16
2022-09-15T13:02:49.099Z,97236.06
2022-09-15T13:05:41.402Z,97238.28
2022-09-15T13:08:15.293Z,97234.38
2022-09-15T13:10:59.404Z,97221.53
2022-09-15T13:13:34.849Z,97221.91
2022-09-15T13:16:03.040Z,97218.25
2022-09-15T13:18:31.040Z,97229.94
2022-09-15T13:21:02.946Z,97228.47
2022-09-15T13:23:36.936Z,97231.53
2022-09-15T13:26:06.905Z,97231.88
2022-09-15T13:28:34.187Z,97236.38
2022-09-15T13:31:25.758Z,97228.41
2022-09-15T13:40:06.733Z,97261.34
2022-09-15T13:42:51.926Z,97253.38
2022-09-15T13:45:46.577Z,97261.66
2022-09-15T13:48:31.666Z,97254.94
2022-09-15T13:51:06.495Z,97253.38
2022-09-15T13:53:49.922Z,97245.13
2022-09-15T13:56:25.087Z,97252.59
2022-09-15T13:58:56.379Z,97257.84
2022-09-15T14:01:28.195Z,97243.88
2022-09-15T14:04:25.037Z,97248.09
2022-09-15T14:06:57.166Z,97244.72
2022-09-15T14:09:33.181Z,97232.63
2022-09-15T14:12:03.852Z,97270.00
2022-09-15T14:14:40.298Z,97266.53
2022-09-15T14:17:19.361Z,97264.38
2022-09-15T14:19:49.079Z,97245.88
2022-09-15T14:22:18.847Z,97251.91
2022-09-15T14:24:45.385Z,97250.38
2022-09-15T14:27:13.089Z,97267.38
2022-09-15T14:29:43.635Z,97279.81
2022-09-15T14:32:14.924Z,97277.50
2022-09-15T14:34:42.459Z,97275.28
2022-09-15T14:37:19.934Z,97254.16
2022-09-15T14:39:51.532Z,97259.84
2022-09-15T14:42:29.606Z,97277.94
2022-09-15T14:48:02.554Z,97269.59
2022-09-15T14:50:33.272Z,97254.91
2022-09-15T14:53:00.101Z,97277.94
2022-09-15T14:55:32.984Z,97282.09
2022-09-15T14:58:02.141Z,97287.22
2022-09-15T15:00:41.666Z,97273.31
2022-09-15T15:03:21.240Z,97274.06
2022-09-15T15:06:02.476Z,97268.81
2022-09-15T15:08:54.729Z,97268.78
2022-09-15T15:11:22.466Z,97275.56
2022-09-15T15:13:52.175Z,97270.28
2022-09-15T15:16:22.897Z,97248.41
2022-09-15T15:18:51.448Z,97240.00
2022-09-15T15:21:45.277Z,97261.84
2022-09-15T15:24:14.590Z,97248.41
2022-09-15T15:26:43.108Z,97257.72
2022-09-15T15:29:38.285Z,97254.66
2022-09-15T15:32:13.456Z,97244.28
2022-09-15T15:34:40.581Z,97252.25
2022-09-15T15:37:21.356Z,97267.69
2022-09-15T15:39:48.023Z,97275.88
2022-09-15T15:42:16.134Z,97242.06
2022-09-15T15:45:19.795Z,97255.69
2022-09-15T15:47:46.353Z,97247.78
2022-09-15T15:50:19.110Z,97242.75
2022-09-15T15:52:45.673Z,97229.19
2022-09-15T15:55:20.600Z,97224.56
2022-09-15T15:57:53.074Z,97212.38
2022-09-15T16:00:31.674Z,97216.97
2022-09-15T16:02:58.348Z,97211.63
2022-09-15T16:05:29.421Z,97222.44
2022-09-15T16:07:59.411Z,97227.28
2022-09-15T16:10:30.129Z,97203.22
2022-09-15T16:12:56.708Z,97192.94
2022-09-15T16:15:23.352Z,97177.44
2022-09-15T16:17:49.904Z,97202.31
2022-09-15T16:20:16.984Z,97215.34
2022-09-15T16:22:43.750Z,97219.53
2022-09-15T16:25:29.790Z,97219.41
2022-09-15T16:27:56.572Z,97205.19
2022-09-15T16:30:24.594Z,97210.34
2022-09-15T16:32:51.141Z,97211.75
2022-09-15T16:35:30.765Z,97223.69
2022-09-15T16:37:57.419Z,97222.53
2022-09-15T16:40:24.209Z,97227.75
2022-09-15T16:42:50.836Z,97232.19
2022-09-15T16:45:29.834Z,97231.00
2022-09-15T16:47:56.441Z,97219.66
2022-09-15T16:50:23.037Z,97230.06
2022-09-15T16:52:50.490Z,97218.63
2022-09-15T16:55:41.245Z,97218.22
2022-09-15T16:58:07.841Z,97208.75
2022-09-15T17:00:37.953Z,97210.34
2022-09-15T17:03:06.270Z,97195.75
2022-09-15T17:05:36.098Z,97183.25
2022-09-15T17:08:04.293Z,97165.09
2022-09-15T17:10:31.515Z,97153.13
2022-09-15T17:12:58.631Z,97138.19
2022-09-15T17:15:26.598Z,97129.78
2022-09-15T17:17:53.658Z,97110.63
2022-09-15T17:20:20.695Z,97115.09
2022-09-15T17:22:48.195Z,97109.78
2022-09-15T17:25:20.868Z,97112.00
2022-09-15T17:27:48.862Z,97116.84
2022-09-15T17:30:16.880Z,97114.75
2022-09-15T17:32:43.456Z,97112.75
2022-09-15T17:35:19.846Z,97109.78
2022-09-15T17:37:46.612Z,97093.84
2022-09-15T17:40:14.787Z,97073.06
2022-09-15T17:42:42.713Z,97066.28
2022-09-15T17:45:19.879Z,97066.06
2022-09-15T17:47:46.981Z,97070.06
2022-09-15T17:50:14.491Z,97074.13
2022-09-15T17:52:41.324Z,97088.84
2022-09-15T17:55:20.203Z,97095.88
2022-09-15T17:57:48.173Z,97101.69
2022-09-15T18:00:16.897Z,97103.31
2022-09-15T18:02:48.737Z,97108.97
2022-09-15T18:05:18.482Z,97119.56
2022-09-15T18:07:45.016Z,97129.72
2022-09-15T18:10:11.613Z,97114.28
2022-09-15T18:12:38.257Z,97127.09
2022-09-15T18:15:05.318Z,97133.53
2022-09-15T18:17:32.060Z,97126.50
2022-09-15T18:19:58.747Z,97146.91
2022-09-15T18:22:25.416Z,97171.56
2022-09-15T18:24:52.036Z,97159.16
2022-09-15T18:27:18.577Z,97171.88
2022-09-15T18:29:45.119Z,97183.44
2022-09-15T18:32:11.640Z,97189.06
2022-09-15T18:34:38.262Z,97174.00
2022-09-15T18:37:04.865Z,97180.78
2022-09-15T18:39:31.495Z,97183.13
2022-09-15T18:41:58.048Z,97168.75
2022-09-15T18:44:24.851Z,97172.06
2022-09-15T18:46:51.603Z,97174.28
2022-09-15T18:49:18.171Z,97176.13
2022-09-15T18:51:52.243Z,97166.84
2022-09-15T18:54:19.021Z,97166.66
2022-09-15T18:56:45.571Z,97165.91
2022-09-15T18:59:14.534Z,97175.13
2022-09-15T19:01:44.108Z,97168.19
2022-09-15T19:04:10.866Z,97190.28
2022-09-15T19:06:37.649Z,97183.28
2022-09-15T19:09:04.216Z,97204.97
2022-09-15T19:11:30.806Z,97194.78
2022-09-15T19:13:57.819Z,97199.19
2022-09-15T19:16:34.695Z,97191.84
2022-09-15T19:19:11.666Z,97181.53
2022-09-15T19:21:38.217Z,97199.84
2022-09-15T19:24:04.792Z,97206.53
2022-09-15T19:26:31.378Z,97215.19
2022-09-15T19:28:58.475Z,97212.00
2022-09-15T19:31:25.889Z,97219.97
2022-09-15T19:33:52.829Z,97209.56
2022-09-15T19:36:29.529Z,97219.69
2022-09-15T19:38:57.345Z,97204.56
2022-09-15T19:41:24.375Z,97200.09
2022-09-15T19:43:50.957Z,97214.78
2022-09-15T19:46:21.272Z,97204.47
2022-09-15T19:48:50.024Z,97212.34
2022-09-15T19:51:17.800Z,97213.34
2022-09-15T19:53:45.251Z,97221.38
2022-09-15T19:56:17.698Z,97208.19
2022-09-15T19:58:45.152Z,97216.13
2022-09-15T20:01:11.817Z,97192.88
2022-09-15T20:03:39.216Z,97198.22
2022-09-15T20:06:07.901Z,97194.75
2022-09-15T20:08:36.184Z,97201.69
2022-09-15T20:11:07.115Z,97205.66
2022-09-15T20:13:39.257Z,97192.81
2022-09-15T20:16:06.191Z,97194.28
2022-09-15T20:18:33.614Z,97217.84
2022-09-15T20:21:02.807Z,97200.66
2022-09-15T20:23:29.312Z,97211.78
2022-09-15T20:26:01.185Z,97197.97
2022-09-15T20:28:29.434Z,97195.75
2022-09-15T20:31:05.108Z,97205.06
2022-09-15T20:33:33.676Z,97202.53
2022-09-15T20:36:01.881Z,97207.91
2022-09-15T20:38:28.517Z,97206.91
2022-09-15T20:40:55.733Z,97201.81
2022-09-15T20:43:23.191Z,97202.16
2022-09-15T20:46:00.537Z,97207.03
2022-09-15T20:48:29.160Z,97198.19
2022-09-15T20:51:08.744Z,97196.16
2022-09-15T20:53:35.617Z,97191.09
2022-09-15T20:56:02.754Z,97201.75
2022-09-15T20:58:29.640Z,97194.56
2022-09-15T21:01:10.949Z,97192.19
2022-09-15T21:03:39.214Z,97185.22
2022-09-15T21:06:13.474Z,97192.00
2022-09-15T21:08:40.432Z,97208.97
2022-09-15T21:11:11.641Z,97190.91
2022-09-15T21:13:40.472Z,97197.22
2022-09-15T21:16:09.918Z,97185.66
2022-09-15T21:18:39.219Z,97187.97
2022-09-15T21:21:23.101Z,97201.59
2022-09-15T21:23:52.620Z,97210.22
2022-09-15T21:26:21.743Z,97200.53
2022-09-15T21:28:48.820Z,97210.81
2022-09-15T21:31:29.983Z,97203.22
2022-09-15T21:33:57.723Z,97204.88
2022-09-15T21:36:30.144Z,97210.88
2022-09-15T21:38:58.374Z,97210.75
2022-09-15T21:41:27.146Z,97222.28
2022-09-15T21:43:55.563Z,97225.34
2022-09-15T21:46:25.098Z,97236.63
2022-09-15T21:48:51.870Z,97218.94
2022-09-15T21:51:24.981Z,97228.91
2022-09-15T21:53:56.380Z,97237.72
2022-09-15T21:56:23.997Z,97226.44
2022-09-15T21:58:50.915Z,97227.84
2022-09-15T22:01:23.532Z,97221.56
2022-09-15T22:03:51.575Z,97241.97
2022-09-15T22:06:19.932Z,97243.41
2022-09-15T22:08:46.880Z,97239.22
2022-09-15T22:11:13.515Z,97237.78
2022-09-15T22:13:43.616Z,97233.47
2022-09-15T22:16:16.642Z,97240.94
2022-09-15T22:18:44.287Z,97245.13
2022-09-15T22:21:19.275Z,97251.19
2022-09-15T22:23:47.843Z,97246.19
2022-09-15T22:26:17.315Z,97246.09
2022-09-15T22:28:44.220Z,97247.06
2022-09-15T22:31:13.401Z,97246.47
2022-09-15T22:33:41.310Z,97238.50
2022-09-15T22:36:16.705Z,97246.47
2022-09-15T22:38:43.987Z,97261.16
2022-09-15T22:41:13.529Z,97271.38
2022-09-15T22:43:41.719Z,97276.91
2022-09-15T22:46:08.952Z,97263.22
2022-09-15T22:48:39.645Z,97271.81
2022-09-15T22:51:09.417Z,97252.34
2022-09-15T22:53:35.964Z,97247.00
2022-09-15T22:56:11.464Z,97263.03
2022-09-15T22:58:42.063Z,97257.59
2022-09-15T23:01:14.569Z,97251.81
2022-09-15T23:03:41.886Z,97246.16
2022-09-15T23:06:08.616Z,97251.81
2022-09-15T23:08:36.114Z,97267.59
2022-09-15T23:11:08.578Z,97258.66
2022-09-15T23:13:35.261Z,97261.59
2022-09-15T23:16:02.523Z,97244.09
2022-09-15T23:18:29.709Z,97237.88
2022-09-15T23:20:58.375Z,97233.50
2022-09-15T23:23:26.018Z,97230.06
2022-09-15T23:25:53.004Z,97229.50
2022-09-15T23:28:19.961Z,97220.00
2022-09-15T23:30:51.725Z,97216.00
2022-09-15T23:33:19.018Z,97218.16
2022-09-15T23:35:46.471Z,97213.03
2022-09-15T23:38:13.701Z,97218.03
2022-09-15T23:40:43.866Z,97209.38
2022-09-15T23:43:11.557Z,97217.94
2022-09-15T23:45:38.506Z,97214.03
2022-09-15T23:48:06.863Z,97222.72
2022-09-15T23:50:34.093Z,97214.88
2022-09-15T23:53:01.132Z,97210.00
2022-09-15T23:55:28.021Z,97222.53
2022-09-15T23:57:54.943Z,97223.72
